ホノルル の空港の天気 - METARとTAF

ホノルル国際空港 ( PHNL / HNL ) - アメリカ ハワイ州ホノルル
飛行場実況気象(Metar)
観測時間08/22 05:53 HST (08/22 15:53 UTC)
風向・風速静穏 0m/s
視程10km以上
天気現象
少しの雲 雲底高度 730m
全天の8割程度の雲 雲底高度 1070m
気温26.7℃
湿度76%
気圧1016.3hPa
METARPHNL 221553Z 00000KT 10SM FEW024 BKN035 27/22 A3001 RMK AO2 SLP163 T02670222
過去の天気等 Google飛行場航空写真 Wunderground天気予報

過去48時間のMETAR

飛行場予報(TAF)
発表時間: 8/22 06:40 HST (8/22 16:40 UTC)
予報対象時間: 22日5時 HST ~ 23日8時 HST
風向・風速不定 3m/s
視程10km以上
天気現象周辺でしゅう雨
少しの雲 雲底高度 760m
全天の8割程度の雲 雲底高度 1070m
22日8時 HST から
風向・風速東北東 5m/s
視程10km以上
少しの雲 雲底高度 760m
全天の4割程度の雲 雲底高度 1070m
22日10時 HST から
風向・風速北東 7m/s 瞬間風速 10m/s
視程10km以上
少しの雲 雲底高度 760m
全天の4割程度の雲 雲底高度 1370m
22日19時 HST から
風向・風速北東 5m/s
視程10km以上
少しの雲 雲底高度 760m
全天の4割程度の雲 雲底高度 1370m
PHNL 221640Z 2215/2318 VRB06KT P6SM VCSH FEW025 BKN035
FM221800 07010KT P6SM FEW025 SCT035
FM222000 05014G20KT P6SM FEW025 SCT045
FM230500 05009KT P6SM FEW025 SCT045